createdAt,value
2017-06-19T00:00:47.315Z,0
2017-06-19T00:01:47.607Z,0
2017-06-19T00:02:47.583Z,0
2017-06-19T00:03:47.569Z,0
2017-06-19T00:04:47.619Z,0
2017-06-19T00:05:47.235Z,0
2017-06-19T00:06:47.209Z,0
2017-06-19T00:07:47.488Z,0
2017-06-19T00:08:47.460Z,0
2017-06-19T00:09:47.699Z,0
2017-06-19T00:10:47.423Z,0
2017-06-19T00:11:47.407Z,0
2017-06-19T00:12:47.385Z,0
2017-06-19T00:13:47.426Z,0
2017-06-19T00:14:47.348Z,0
2017-06-19T00:15:47.033Z,0
2017-06-19T00:16:47.308Z,0
2017-06-19T00:17:47.288Z,0
2017-06-19T00:18:47.275Z,0
2017-06-19T00:19:47.258Z,0
2017-06-19T00:20:47.233Z,0
2017-06-19T00:21:47.268Z,0
2017-06-19T00:22:47.002Z,0
2017-06-19T00:23:47.178Z,0
2017-06-19T00:24:46.852Z,0
2017-06-19T00:25:47.168Z,0
2017-06-19T00:26:47.121Z,0
2017-06-19T00:27:47.106Z,0
2017-06-19T00:28:47.083Z,0
2017-06-19T00:29:47.061Z,0
2017-06-19T00:30:47.046Z,0
2017-06-19T00:31:46.789Z,0
2017-06-19T00:32:47.023Z,0
2017-06-19T00:33:46.993Z,0
2017-06-19T00:34:46.959Z,0
2017-06-19T00:35:46.700Z,0
2017-06-19T00:36:46.631Z,0
2017-06-19T00:37:46.615Z,0
2017-06-19T00:38:46.588Z,0
2017-06-19T00:39:46.571Z,0
2017-06-19T00:40:46.862Z,0
2017-06-19T00:41:46.829Z,0
2017-06-19T00:42:46.822Z,0
2017-06-19T00:43:46.812Z,0
2017-06-19T00:44:46.477Z,0
2017-06-19T00:45:46.798Z,0
2017-06-19T00:46:46.433Z,0
2017-06-19T00:47:46.423Z,0
2017-06-19T00:48:46.738Z,0
2017-06-19T00:49:46.415Z,0
2017-06-19T00:50:46.708Z,0
2017-06-19T00:51:46.653Z,0
2017-06-19T00:52:46.627Z,0
2017-06-19T00:53:46.596Z,0
2017-06-19T00:54:46.277Z,0
2017-06-19T00:55:46.576Z,0
2017-06-19T00:56:46.542Z,0
2017-06-19T00:57:46.527Z,0
2017-06-19T00:58:46.210Z,0
2017-06-19T00:59:46.493Z,0
2017-06-19T01:00:46.473Z,0
2017-06-19T01:01:46.444Z,0
2017-06-19T01:02:46.424Z,0
2017-06-19T01:03:46.410Z,0
2017-06-19T01:04:46.402Z,0
2017-06-19T01:05:46.366Z,0
2017-06-19T01:06:46.343Z,0
2017-06-19T01:07:46.422Z,0
2017-06-19T01:08:46.319Z,0
2017-06-19T01:09:46.287Z,0
2017-06-19T01:10:46.318Z,0
2017-06-19T01:11:46.355Z,0
2017-06-19T01:12:46.233Z,0
2017-06-19T01:13:46.264Z,0
2017-06-19T01:14:46.195Z,0
2017-06-19T01:15:46.175Z,0
2017-06-19T01:16:46.164Z,0
2017-06-19T01:17:46.185Z,0
2017-06-19T01:18:46.126Z,0
2017-06-19T01:19:46.104Z,0
2017-06-19T01:20:45.783Z,0
2017-06-19T01:21:45.764Z,0
2017-06-19T01:22:46.038Z,0
2017-06-19T01:23:45.713Z,0
2017-06-19T01:24:45.692Z,0
2017-06-19T01:25:45.971Z,0
2017-06-19T01:26:45.663Z,0
2017-06-19T01:27:45.943Z,0
2017-06-19T01:28:45.921Z,0
2017-06-19T01:29:45.905Z,0
2017-06-19T01:30:45.878Z,0
2017-06-19T01:31:45.865Z,0
2017-06-19T01:32:45.841Z,0
2017-06-19T01:33:45.830Z,0
2017-06-19T01:34:45.809Z,0
2017-06-19T01:35:45.786Z,0
2017-06-19T01:36:45.770Z,0
2017-06-19T01:37:45.447Z,0
2017-06-19T01:38:45.733Z,0
2017-06-19T01:39:45.710Z,0
2017-06-19T01:40:45.458Z,0
2017-06-19T01:41:45.686Z,0
2017-06-19T01:42:45.654Z,0
2017-06-19T01:43:45.341Z,0
2017-06-19T01:44:45.354Z,0
2017-06-19T01:45:45.591Z,0
2017-06-19T01:46:45.269Z,0
2017-06-19T01:47:45.258Z,0
2017-06-19T01:48:45.536Z,0
2017-06-19T01:49:45.564Z,0
2017-06-19T01:50:45.497Z,0
2017-06-19T01:51:45.467Z,0
2017-06-19T01:52:45.157Z,0
2017-06-19T01:53:45.434Z,0
2017-06-19T01:54:45.464Z,0
2017-06-19T01:55:45.395Z,0
2017-06-19T01:56:45.377Z,0
2017-06-19T01:57:45.354Z,0
2017-06-19T01:58:45.341Z,0
2017-06-19T01:59:45.315Z,0
2017-06-19T02:00:45.305Z,0
2017-06-19T02:01:45.281Z,0
2017-06-19T02:02:45.310Z,0
2017-06-19T02:03:45.241Z,0
2017-06-19T02:04:45.224Z,0
2017-06-19T02:05:45.201Z,0
2017-06-19T02:06:45.182Z,0
2017-06-19T02:07:45.203Z,0
2017-06-19T02:08:45.139Z,0
2017-06-19T02:09:45.117Z,0
2017-06-19T02:10:45.108Z,0
2017-06-19T02:11:45.095Z,0
2017-06-19T02:12:44.768Z,0
2017-06-19T02:13:45.049Z,0
2017-06-19T02:14:45.084Z,0
2017-06-19T02:15:44.707Z,0
2017-06-19T02:16:44.977Z,0
2017-06-19T02:17:44.660Z,0
2017-06-19T02:18:44.974Z,0
2017-06-19T02:19:44.624Z,0
2017-06-19T02:20:44.919Z,0
2017-06-19T02:21:44.579Z,0
2017-06-19T02:22:44.590Z,0
2017-06-19T02:23:44.558Z,0
2017-06-19T02:24:44.831Z,0
2017-06-19T02:25:44.511Z,0
2017-06-19T02:26:44.790Z,0
2017-06-19T02:27:44.827Z,0
2017-06-19T02:28:44.747Z,0
2017-06-19T02:29:44.724Z,0
2017-06-19T02:30:44.408Z,0
2017-06-19T02:31:44.395Z,0
2017-06-19T02:32:44.429Z,0
2017-06-19T02:33:44.355Z,0
2017-06-19T02:34:44.389Z,0
2017-06-19T02:35:44.617Z,0
2017-06-19T02:36:44.297Z,0
2017-06-19T02:37:44.570Z,0
2017-06-19T02:38:44.554Z,0
2017-06-19T02:39:44.240Z,0
2017-06-19T02:40:44.542Z,0
2017-06-19T02:41:44.505Z,0
2017-06-19T02:42:44.500Z,0
2017-06-19T02:43:44.164Z,0
2017-06-19T02:44:44.433Z,0
2017-06-19T02:45:44.477Z,0
2017-06-19T02:46:44.093Z,0
2017-06-19T02:47:44.106Z,0
2017-06-19T02:48:44.356Z,0
2017-06-19T02:49:44.349Z,0
2017-06-19T02:50:44.307Z,0
2017-06-19T02:51:44.302Z,0
2017-06-19T02:52:44.281Z,0
2017-06-19T02:53:43.994Z,0
2017-06-19T02:54:44.247Z,0
2017-06-19T02:55:44.237Z,0
2017-06-19T02:56:44.200Z,0
2017-06-19T02:57:44.181Z,0
2017-06-19T02:58:44.170Z,0
2017-06-19T02:59:43.854Z,5
2017-06-19T03:00:44.120Z,5
2017-06-19T03:01:44.100Z,5
2017-06-19T03:02:44.087Z,5
2017-06-19T03:03:44.066Z,5
2017-06-19T03:04:44.037Z,5
2017-06-19T03:05:44.029Z,5
2017-06-19T03:06:43.997Z,5
2017-06-19T03:07:43.985Z,5
2017-06-19T03:08:44.008Z,5
2017-06-19T03:09:43.935Z,10
2017-06-19T03:10:43.990Z,10
2017-06-19T03:11:43.352Z,10
2017-06-19T03:12:43.893Z,10
2017-06-19T03:13:44.165Z,10
2017-06-19T03:14:43.593Z,10
2017-06-19T03:15:43.841Z,10
2017-06-19T03:16:43.802Z,15
2017-06-19T03:17:43.781Z,15
2017-06-19T03:18:43.758Z,15
2017-06-19T03:19:43.442Z,15
2017-06-19T03:20:43.725Z,15
2017-06-19T03:21:43.711Z,20
2017-06-19T03:22:43.385Z,20
2017-06-19T03:23:43.663Z,20
2017-06-19T03:24:43.647Z,20
2017-06-19T03:25:43.329Z,20
2017-06-19T03:26:43.308Z,25
2017-06-19T03:27:43.289Z,25
2017-06-19T03:28:43.263Z,25
2017-06-19T03:29:43.596Z,25
2017-06-19T03:30:43.228Z,25
2017-06-19T03:31:43.507Z,30
2017-06-19T03:32:43.495Z,30
2017-06-19T03:33:43.168Z,30
2017-06-19T03:34:43.453Z,35
2017-06-19T03:35:43.432Z,35
2017-06-19T03:36:43.411Z,35
2017-06-19T03:37:43.081Z,40
2017-06-19T03:38:43.370Z,40
2017-06-19T03:39:43.357Z,45
2017-06-19T03:40:43.334Z,50
2017-06-19T03:41:43.312Z,50
2017-06-19T03:42:43.291Z,55
2017-06-19T03:43:43.269Z,55
2017-06-19T03:44:43.262Z,55
2017-06-19T03:45:43.234Z,60
2017-06-19T03:46:43.210Z,70
2017-06-19T03:47:43.284Z,80
2017-06-19T03:48:43.283Z,95
2017-06-19T03:49:43.151Z,105
2017-06-19T03:50:43.134Z,110
2017-06-19T03:51:43.121Z,115
2017-06-19T03:52:43.093Z,115
2017-06-19T03:53:43.081Z,120
2017-06-19T03:54:43.058Z,125
2017-06-19T03:55:43.031Z,130
2017-06-19T03:56:43.063Z,135
2017-06-19T03:57:43.038Z,140
2017-06-19T03:58:42.986Z,145
2017-06-19T03:59:43.002Z,145
2017-06-19T04:00:42.943Z,150
2017-06-19T04:01:42.923Z,155
2017-06-19T04:02:42.902Z,160
2017-06-19T04:03:42.885Z,165
2017-06-19T04:04:42.864Z,165
2017-06-19T04:05:42.836Z,170
2017-06-19T04:06:42.519Z,175
2017-06-19T04:07:42.798Z,180
2017-06-19T04:08:42.792Z,185
2017-06-19T04:09:42.771Z,190
2017-06-19T04:10:42.745Z,195
2017-06-19T04:11:42.778Z,195
2017-06-19T04:12:42.713Z,200
2017-06-19T04:13:42.689Z,205
2017-06-19T04:14:42.381Z,210
2017-06-19T04:15:42.656Z,215
2017-06-19T04:16:42.352Z,225
2017-06-19T04:17:42.669Z,230
2017-06-19T04:18:42.606Z,230
2017-06-19T04:19:42.575Z,235
2017-06-19T04:20:42.262Z,240
2017-06-19T04:21:42.555Z,240
2017-06-19T04:22:42.224Z,245
2017-06-19T04:23:42.511Z,250
2017-06-19T04:24:42.193Z,255
2017-06-19T04:25:42.468Z,260
2017-06-19T04:26:42.460Z,265
2017-06-19T04:27:41.861Z,270
2017-06-19T04:28:42.425Z,275
2017-06-19T04:29:42.106Z,275
2017-06-19T04:30:42.383Z,280
2017-06-19T04:31:42.419Z,285
2017-06-19T04:32:41.785Z,290
2017-06-19T04:33:42.383Z,305
2017-06-19T04:34:42.020Z,305
2017-06-19T04:35:42.304Z,305
2017-06-19T04:36:42.277Z,315
2017-06-19T04:37:42.024Z,320
2017-06-19T04:38:42.281Z,325
2017-06-19T04:39:42.237Z,325
2017-06-19T04:40:42.214Z,330
2017-06-19T04:41:41.957Z,335
2017-06-19T04:42:41.901Z,340
2017-06-19T04:43:42.168Z,345
2017-06-19T04:44:42.148Z,350
2017-06-19T04:45:42.132Z,355
2017-06-19T04:46:42.115Z,360
2017-06-19T04:47:42.101Z,365
2017-06-19T04:48:42.093Z,370
2017-06-19T04:49:41.777Z,370
2017-06-19T04:50:42.124Z,375
2017-06-19T04:51:42.042Z,380
2017-06-19T04:52:42.033Z,385
2017-06-19T04:53:42.010Z,395
2017-06-19T04:54:41.395Z,400
2017-06-19T04:55:41.983Z,410
2017-06-19T04:56:41.987Z,410
2017-06-19T04:57:41.649Z,420
2017-06-19T04:58:41.664Z,425
2017-06-19T04:59:41.916Z,430
2017-06-19T05:00:41.896Z,435
2017-06-19T05:01:41.897Z,435
2017-06-19T05:02:41.873Z,445
2017-06-19T05:03:41.856Z,455
2017-06-19T05:04:41.853Z,455
2017-06-19T05:05:41.827Z,465
2017-06-19T05:06:41.824Z,465
2017-06-19T05:07:41.792Z,470
2017-06-19T05:08:41.788Z,480
2017-06-19T05:09:41.455Z,490
2017-06-19T05:10:41.760Z,490
2017-06-19T05:11:41.688Z,490
2017-06-19T05:12:41.781Z,495
2017-06-19T05:13:41.704Z,500
2017-06-19T05:14:41.394Z,505
2017-06-19T05:15:41.671Z,515
2017-06-19T05:16:41.666Z,520
2017-06-19T05:17:41.455Z,520
2017-06-19T05:18:41.638Z,525
2017-06-19T05:19:41.625Z,525
2017-06-19T05:20:41.603Z,530
2017-06-19T05:21:41.595Z,530
2017-06-19T05:22:41.879Z,530
2017-06-19T05:23:41.568Z,535
2017-06-19T05:24:41.554Z,545
2017-06-19T05:25:41.648Z,545
2017-06-19T05:26:41.519Z,555
2017-06-19T05:27:41.517Z,560
2017-06-19T05:28:41.503Z,565
2017-06-19T05:29:41.168Z,570
2017-06-19T05:30:41.478Z,585
2017-06-19T05:31:41.463Z,595
2017-06-19T05:32:41.447Z,610
2017-06-19T05:33:41.437Z,625
2017-06-19T05:34:41.422Z,630
2017-06-19T05:35:41.405Z,640
2017-06-19T05:36:41.346Z,650
2017-06-19T05:37:41.393Z,655
2017-06-19T05:38:41.360Z,655
2017-06-19T05:39:41.358Z,660
2017-06-19T05:40:41.354Z,670
2017-06-19T05:41:41.334Z,670
2017-06-19T05:42:41.333Z,680
2017-06-19T05:43:41.409Z,690
2017-06-19T05:44:41.299Z,700
2017-06-19T05:45:41.337Z,720
2017-06-19T05:46:41.578Z,720
2017-06-19T05:47:40.964Z,725
2017-06-19T05:48:41.260Z,730
2017-06-19T05:49:41.230Z,735
2017-06-19T05:50:40.636Z,740
2017-06-19T05:51:40.918Z,745
2017-06-19T05:52:41.222Z,750
2017-06-19T05:53:41.194Z,750
2017-06-19T05:54:41.193Z,755
2017-06-19T05:55:41.173Z,760
2017-06-19T05:56:41.155Z,770
2017-06-19T05:57:41.154Z,770
2017-06-19T05:58:41.144Z,785
2017-06-19T05:59:41.132Z,790
2017-06-19T06:00:40.815Z,800
2017-06-19T06:01:41.128Z,810
2017-06-19T06:02:41.146Z,810
2017-06-19T06:03:41.088Z,815
2017-06-19T06:04:41.136Z,825
2017-06-19T06:05:41.319Z,830
2017-06-19T06:06:41.068Z,840
2017-06-19T06:07:41.045Z,860
2017-06-19T06:08:41.034Z,865
2017-06-19T06:09:41.040Z,875
2017-06-19T06:10:41.032Z,885
2017-06-19T06:11:41.020Z,890
2017-06-19T06:12:40.694Z,900
2017-06-19T06:13:40.983Z,920
2017-06-19T06:14:40.977Z,925
2017-06-19T06:15:40.963Z,945
2017-06-19T06:16:40.661Z,955
2017-06-19T06:17:40.678Z,965
2017-06-19T06:18:40.942Z,975
2017-06-19T06:19:40.935Z,975
2017-06-19T06:20:40.931Z,980
2017-06-19T06:21:40.920Z,985
2017-06-19T06:22:40.618Z,1000
2017-06-19T06:23:40.907Z,1005
2017-06-19T06:24:41.199Z,1010
2017-06-19T06:25:40.575Z,1005
2017-06-19T06:26:40.882Z,1000
2017-06-19T06:27:40.856Z,1005
2017-06-19T06:28:40.867Z,1020
2017-06-19T06:29:40.545Z,1035
2017-06-19T06:30:40.840Z,1045
2017-06-19T06:31:41.080Z,1050
2017-06-19T06:32:40.516Z,1060
2017-06-19T06:33:40.806Z,1080
2017-06-19T06:34:40.872Z,1090
2017-06-19T06:35:40.841Z,1095
2017-06-19T06:36:40.497Z,1100
2017-06-19T06:37:40.782Z,1115
2017-06-19T06:38:40.767Z,1125
2017-06-19T06:39:40.467Z,1140
2017-06-19T06:40:40.805Z,1140
2017-06-19T06:41:40.749Z,1140
2017-06-19T06:42:40.753Z,1140
2017-06-19T06:43:40.482Z,1150
2017-06-19T06:44:40.423Z,1140
2017-06-19T06:45:40.730Z,1150
2017-06-19T06:46:40.723Z,1155
2017-06-19T06:47:40.703Z,1160
2017-06-19T06:48:40.690Z,1165
2017-06-19T06:49:40.691Z,1165
2017-06-19T06:50:40.696Z,1160
2017-06-19T06:51:40.686Z,1155
2017-06-19T06:52:40.670Z,1150
2017-06-19T06:53:40.684Z,1140
2017-06-19T06:54:40.662Z,1145
2017-06-19T06:55:40.656Z,1150
2017-06-19T06:56:40.647Z,1160
2017-06-19T06:57:40.338Z,1185
2017-06-19T06:58:40.328Z,1210
2017-06-19T06:59:40.633Z,1220
2017-06-19T07:00:40.635Z,1250
2017-06-19T07:01:40.621Z,1260
2017-06-19T07:02:40.620Z,1285
2017-06-19T07:03:40.613Z,1300
2017-06-19T07:04:40.599Z,1320
2017-06-19T07:05:40.297Z,1320
2017-06-19T07:06:40.603Z,1325
2017-06-19T07:07:40.584Z,1335
2017-06-19T07:08:40.574Z,1350
2017-06-19T07:09:40.563Z,1345
2017-06-19T07:10:40.262Z,1350
2017-06-19T07:11:40.263Z,1350
2017-06-19T07:12:40.562Z,1360
2017-06-19T07:13:40.607Z,1375
2017-06-19T07:14:39.953Z,1385
2017-06-19T07:15:40.254Z,1385
2017-06-19T07:16:40.532Z,1400
2017-06-19T07:17:40.538Z,1395
2017-06-19T07:18:40.527Z,1400
2017-06-19T07:19:40.527Z,1410
2017-06-19T07:20:40.523Z,1410
2017-06-19T07:21:40.512Z,1410
2017-06-19T07:22:40.506Z,1420
2017-06-19T07:23:40.513Z,1430
2017-06-19T07:24:40.503Z,1440
2017-06-19T07:25:40.198Z,1450
2017-06-19T07:26:40.504Z,1460
2017-06-19T07:27:40.476Z,1470
2017-06-19T07:28:40.476Z,1475
2017-06-19T07:29:40.529Z,1470
2017-06-19T07:30:40.671Z,1460
2017-06-19T07:31:40.513Z,1450
2017-06-19T07:32:40.467Z,1440
2017-06-19T07:33:40.464Z,1420
2017-06-19T07:34:40.451Z,1420
2017-06-19T07:35:40.441Z,1425
2017-06-19T07:36:40.436Z,1440
2017-06-19T07:37:40.431Z,1460
2017-06-19T07:38:40.430Z,1480
2017-06-19T07:39:40.479Z,1505
2017-06-19T07:40:40.424Z,1525
2017-06-19T07:41:40.422Z,1540
2017-06-19T07:42:40.456Z,1550
2017-06-19T07:43:40.162Z,1565
2017-06-19T07:44:40.414Z,1560
2017-06-19T07:45:40.404Z,1540
2017-06-19T07:46:40.411Z,1510
2017-06-19T07:47:40.097Z,1485
2017-06-19T07:48:40.385Z,1465
2017-06-19T07:49:40.388Z,1465
2017-06-19T07:50:40.487Z,1475
2017-06-19T07:51:40.394Z,1495
2017-06-19T07:52:40.373Z,1525
2017-06-19T07:53:40.368Z,1560
2017-06-19T07:54:40.377Z,1570
2017-06-19T07:55:40.372Z,1595
2017-06-19T07:56:40.362Z,1615
2017-06-19T07:57:40.421Z,1635
2017-06-19T07:58:40.351Z,1630
2017-06-19T07:59:40.054Z,1640
2017-06-19T08:00:40.047Z,1655
2017-06-19T08:01:40.349Z,1685
2017-06-19T08:02:40.403Z,1690
2017-06-19T08:03:40.345Z,1705
2017-06-19T08:04:40.156Z,1720
2017-06-19T08:05:40.042Z,1740
2017-06-19T08:06:40.337Z,1755
2017-06-19T08:07:39.737Z,1750
2017-06-19T08:08:40.333Z,1745
2017-06-19T08:09:40.335Z,1750
2017-06-19T08:10:40.327Z,1745
2017-06-19T08:11:40.406Z,1745
2017-06-19T08:12:40.580Z,1760
2017-06-19T08:13:40.379Z,1750
2017-06-19T08:14:40.318Z,1755
2017-06-19T08:15:40.310Z,1740
2017-06-19T08:16:40.366Z,1745
2017-06-19T08:17:40.311Z,1750
2017-06-19T08:18:40.316Z,1730
2017-06-19T08:19:40.003Z,1720
2017-06-19T08:20:40.009Z,1735
2017-06-19T08:21:40.309Z,1760
2017-06-19T08:22:40.307Z,1775
2017-06-19T08:23:40.301Z,1790
2017-06-19T08:24:40.049Z,1775
2017-06-19T08:25:40.337Z,1760
2017-06-19T08:26:40.294Z,1765
2017-06-19T08:27:40.301Z,1775
2017-06-19T08:28:40.287Z,1800
2017-06-19T08:29:40.040Z,1825
2017-06-19T08:30:40.345Z,1840
2017-06-19T08:31:40.291Z,1845
2017-06-19T08:32:39.989Z,1830
2017-06-19T08:33:39.977Z,1840
2017-06-19T08:34:40.293Z,1825
2017-06-19T08:35:40.295Z,1840
2017-06-19T08:36:40.335Z,1900
2017-06-19T08:37:40.366Z,2010
2017-06-19T08:38:39.970Z,2050
2017-06-19T08:39:40.280Z,2040
2017-06-19T08:40:40.266Z,2105
2017-06-19T08:41:40.266Z,2165
2017-06-19T08:42:40.262Z,2190
2017-06-19T08:43:40.327Z,2215
2017-06-19T08:44:39.966Z,2230
2017-06-19T08:45:39.960Z,2160
2017-06-19T08:46:39.957Z,2045
2017-06-19T08:47:39.954Z,1935
2017-06-19T08:48:40.268Z,1870
2017-06-19T08:49:40.255Z,1875
2017-06-19T08:50:39.962Z,1865
2017-06-19T08:51:40.254Z,1885
2017-06-19T08:52:40.020Z,1890
2017-06-19T08:53:40.259Z,1915
2017-06-19T08:54:40.261Z,1935
2017-06-19T08:55:40.261Z,1935
2017-06-19T08:56:40.250Z,1915
2017-06-19T08:57:40.246Z,1905
2017-06-19T08:58:39.939Z,1895
2017-06-19T08:59:39.949Z,1900
2017-06-19T09:00:40.251Z,1890
2017-06-19T09:01:40.238Z,1855
2017-06-19T09:02:40.248Z,1845
2017-06-19T09:03:39.930Z,1860
2017-06-19T09:04:40.242Z,1880
2017-06-19T09:05:40.245Z,1905
2017-06-19T09:06:40.239Z,1925
2017-06-19T09:07:40.278Z,1945
2017-06-19T09:08:40.241Z,1965
2017-06-19T09:09:39.929Z,1975
2017-06-19T09:10:40.227Z,1910
2017-06-19T09:11:40.226Z,1900
2017-06-19T09:12:40.226Z,1865
2017-06-19T09:13:40.215Z,1895
2017-06-19T09:14:40.222Z,1895
2017-06-19T09:15:39.910Z,1925
2017-06-19T09:16:40.201Z,1945
2017-06-19T09:17:40.257Z,1955
2017-06-19T09:18:40.216Z,1980
2017-06-19T09:19:40.202Z,2000
2017-06-19T09:20:40.208Z,2010
2017-06-19T09:21:40.258Z,2035
2017-06-19T09:22:39.898Z,2030
2017-06-19T09:23:40.246Z,2040
2017-06-19T09:24:40.198Z,2010
2017-06-19T09:25:40.192Z,2025
2017-06-19T09:26:39.888Z,2010
2017-06-19T09:27:39.889Z,2010
2017-06-19T09:28:40.232Z,2070
2017-06-19T09:29:39.879Z,2105
2017-06-19T09:30:40.192Z,2110
2017-06-19T09:31:39.880Z,2130
2017-06-19T09:32:40.230Z,2135
2017-06-19T09:33:40.169Z,2160
2017-06-19T09:34:40.229Z,2165
2017-06-19T09:35:40.220Z,2165
2017-06-19T09:36:40.168Z,2180
2017-06-19T09:37:40.170Z,2195
2017-06-19T09:38:40.168Z,2190
2017-06-19T09:39:40.158Z,2225
2017-06-19T09:40:40.164Z,2255
2017-06-19T09:41:40.223Z,2240
2017-06-19T09:42:40.214Z,2250
2017-06-19T09:43:40.248Z,2260
2017-06-19T09:44:40.158Z,2260
2017-06-19T09:45:39.849Z,2260
2017-06-19T09:46:40.157Z,2265
2017-06-19T09:47:40.143Z,2285
2017-06-19T09:48:40.140Z,2310
2017-06-19T09:49:40.137Z,2295
2017-06-19T09:50:39.844Z,2265
2017-06-19T09:51:40.143Z,2260
2017-06-19T09:52:39.537Z,2245
2017-06-19T09:53:40.152Z,2240
2017-06-19T09:54:40.133Z,2245
2017-06-19T09:55:40.139Z,2260
2017-06-19T09:56:40.133Z,2255
2017-06-19T09:57:40.134Z,2255
2017-06-19T09:58:39.821Z,2245
2017-06-19T09:59:40.134Z,2260
2017-06-19T10:00:40.132Z,2300
2017-06-19T10:01:39.820Z,2300
2017-06-19T10:02:40.109Z,2265
2017-06-19T10:03:40.120Z,2240
2017-06-19T10:04:39.815Z,2270
2017-06-19T10:05:40.128Z,2295
2017-06-19T10:06:40.106Z,2285
2017-06-19T10:07:39.835Z,2290
2017-06-19T10:08:40.117Z,2250
2017-06-19T10:09:40.091Z,2210
2017-06-19T10:10:40.169Z,2125
2017-06-19T10:11:40.166Z,2105
2017-06-19T10:12:40.115Z,2040
2017-06-19T10:13:40.094Z,2050
2017-06-19T10:14:40.097Z,2025
2017-06-19T10:15:40.098Z,2045
2017-06-19T10:16:40.083Z,2080
2017-06-19T10:17:40.088Z,2140
2017-06-19T10:18:39.788Z,2195
2017-06-19T10:19:40.074Z,2200
2017-06-19T10:20:39.774Z,2255
2017-06-19T10:21:39.478Z,2305
2017-06-19T10:22:40.078Z,2340
2017-06-19T10:23:39.760Z,2340
2017-06-19T10:24:40.058Z,2320
2017-06-19T10:25:40.105Z,2295
2017-06-19T10:26:40.061Z,2290
2017-06-19T10:27:40.049Z,2275
2017-06-19T10:28:40.062Z,2295
2017-06-19T10:29:40.045Z,2315
2017-06-19T10:30:40.051Z,2315
2017-06-19T10:31:40.095Z,2295
2017-06-19T10:32:40.050Z,2335
2017-06-19T10:33:39.985Z,2360
2017-06-19T10:34:40.040Z,2330
2017-06-19T10:35:40.036Z,2290
2017-06-19T10:36:40.035Z,2300
2017-06-19T10:37:40.074Z,2285
2017-06-19T10:38:39.725Z,2250
2017-06-19T10:39:39.724Z,2190
2017-06-19T10:40:39.723Z,2120
2017-06-19T10:41:40.026Z,2080
2017-06-19T10:42:40.026Z,2015
2017-06-19T10:43:40.009Z,1940
2017-06-19T10:44:40.062Z,1780
2017-06-19T10:45:40.055Z,1700
2017-06-19T10:46:40.022Z,1785
2017-06-19T10:47:40.002Z,1870
2017-06-19T10:48:39.999Z,1965
2017-06-19T10:49:39.697Z,2055
2017-06-19T10:50:40.002Z,2115
2017-06-19T10:51:39.993Z,2185
2017-06-19T10:52:39.695Z,2250
2017-06-19T10:53:39.989Z,2325
2017-06-19T10:54:39.976Z,2355
2017-06-19T10:55:39.997Z,2380
2017-06-19T10:56:39.984Z,2425
2017-06-19T10:57:39.982Z,2430
2017-06-19T10:58:40.023Z,2465
2017-06-19T10:59:39.984Z,2465
2017-06-19T11:00:39.974Z,2465
2017-06-19T11:01:40.030Z,2435
2017-06-19T11:02:40.026Z,2425
2017-06-19T11:03:39.665Z,1965
2017-06-19T11:04:39.973Z,915
2017-06-19T11:05:39.978Z,260
2017-06-19T11:06:39.963Z,250
2017-06-19T11:07:39.659Z,255
2017-06-19T11:08:39.961Z,495
2017-06-19T11:09:39.354Z,1665
2017-06-19T11:10:39.648Z,2460
2017-06-19T11:11:39.937Z,2465
2017-06-19T11:12:39.938Z,2445
2017-06-19T11:13:39.924Z,1700
2017-06-19T11:14:39.925Z,910
2017-06-19T11:15:39.919Z,795
2017-06-19T11:16:39.984Z,960
2017-06-19T11:17:39.908Z,1110
2017-06-19T11:18:39.600Z,760
2017-06-19T11:19:39.897Z,305
2017-06-19T11:20:39.940Z,240
2017-06-19T11:21:39.894Z,235
2017-06-19T11:22:39.879Z,230
2017-06-19T11:23:39.875Z,230
2017-06-19T11:24:39.862Z,235
2017-06-19T11:25:39.860Z,230
2017-06-19T11:26:39.604Z,225
2017-06-19T11:27:39.844Z,225
2017-06-19T11:28:39.827Z,225
2017-06-19T11:29:39.517Z,225
2017-06-19T11:30:39.534Z,225
2017-06-19T11:31:39.521Z,220
2017-06-19T11:32:39.839Z,220
2017-06-19T11:33:39.784Z,220
2017-06-19T11:34:39.779Z,220
2017-06-19T11:35:39.776Z,220
2017-06-19T11:36:39.759Z,220
2017-06-19T11:37:39.747Z,220
2017-06-19T11:38:39.735Z,220
2017-06-19T11:39:39.739Z,220
2017-06-19T11:40:39.727Z,220
2017-06-19T11:41:39.715Z,220
2017-06-19T11:42:39.749Z,215
2017-06-19T11:43:39.737Z,215
2017-06-19T11:44:39.670Z,215
2017-06-19T11:45:39.666Z,210
2017-06-19T11:46:39.336Z,210
2017-06-19T11:47:39.642Z,210
2017-06-19T11:48:39.616Z,210
2017-06-19T11:49:39.305Z,210
2017-06-19T11:50:39.647Z,210
2017-06-19T11:51:39.647Z,205
2017-06-19T11:52:39.583Z,205
2017-06-19T11:53:39.255Z,205
2017-06-19T11:54:39.293Z,205
2017-06-19T11:55:39.524Z,200
2017-06-19T11:56:39.521Z,205
2017-06-19T11:57:39.504Z,200
2017-06-19T11:58:39.506Z,200
2017-06-19T11:59:39.483Z,200
2017-06-19T12:00:39.576Z,200
2017-06-19T12:01:39.460Z,200
2017-06-19T12:02:39.459Z,195
2017-06-19T12:03:39.432Z,195
2017-06-19T12:04:39.459Z,195
2017-06-19T12:05:39.394Z,195
2017-06-19T12:06:39.390Z,195
2017-06-19T12:07:39.079Z,195
2017-06-19T12:08:39.433Z,195
2017-06-19T12:09:39.451Z,195
2017-06-19T12:10:39.347Z,195
2017-06-19T12:11:39.355Z,190
2017-06-19T12:12:39.317Z,190
2017-06-19T12:13:38.689Z,190
2017-06-19T12:14:39.361Z,190
2017-06-19T12:15:39.354Z,190
2017-06-19T12:16:39.315Z,190
2017-06-19T12:17:39.323Z,190
2017-06-19T12:18:39.310Z,190
2017-06-19T12:19:39.082Z,190
2017-06-19T12:20:39.327Z,185
2017-06-19T12:21:38.943Z,185
2017-06-19T12:22:38.939Z,185
2017-06-19T12:23:39.211Z,185
2017-06-19T12:24:39.446Z,185
2017-06-19T12:25:38.881Z,185
2017-06-19T12:26:38.834Z,185
2017-06-19T12:27:39.121Z,185
2017-06-19T12:28:39.103Z,185
2017-06-19T12:29:39.087Z,185
2017-06-19T12:30:38.773Z,185
2017-06-19T12:31:38.780Z,185
2017-06-19T12:32:39.048Z,185
2017-06-19T12:33:38.732Z,185
2017-06-19T12:34:39.021Z,180
2017-06-19T12:35:39.015Z,180
2017-06-19T12:36:38.999Z,180
2017-06-19T12:37:38.676Z,180
2017-06-19T12:38:38.984Z,180
2017-06-19T12:39:38.649Z,180
2017-06-19T12:40:39.168Z,180
2017-06-19T12:41:38.982Z,175
2017-06-19T12:42:38.923Z,175
2017-06-19T12:43:38.902Z,175
2017-06-19T12:44:38.893Z,175
2017-06-19T12:45:38.871Z,175
2017-06-19T12:46:38.874Z,175
2017-06-19T12:47:38.854Z,175
2017-06-19T12:48:38.831Z,175
2017-06-19T12:49:38.523Z,175
2017-06-19T12:50:38.803Z,175
2017-06-19T12:51:38.792Z,175
2017-06-19T12:52:38.793Z,175
2017-06-19T12:53:38.774Z,175
2017-06-19T12:54:38.207Z,175
2017-06-19T12:55:38.739Z,170
2017-06-19T12:56:38.421Z,170
2017-06-19T12:57:38.920Z,170
2017-06-19T12:58:38.697Z,170
2017-06-19T12:59:38.684Z,170
2017-06-19T13:00:38.683Z,170
2017-06-19T13:01:38.679Z,170
2017-06-19T13:02:38.656Z,170
2017-06-19T13:03:38.334Z,170
2017-06-19T13:04:38.619Z,170
2017-06-19T13:05:38.605Z,170
2017-06-19T13:06:38.587Z,170
2017-06-19T13:07:38.578Z,170
2017-06-19T13:08:38.570Z,170
2017-06-19T13:09:38.552Z,170
2017-06-19T13:10:38.537Z,170
2017-06-19T13:11:38.456Z,170
2017-06-19T13:12:38.522Z,170
2017-06-19T13:13:38.505Z,170
2017-06-19T13:14:38.486Z,170
2017-06-19T13:15:38.553Z,165
2017-06-19T13:16:38.502Z,165
2017-06-19T13:17:38.464Z,165
2017-06-19T13:18:38.432Z,165
2017-06-19T13:19:38.160Z,165
2017-06-19T13:20:38.406Z,165
2017-06-19T13:21:38.386Z,165
2017-06-19T13:22:38.122Z,165
2017-06-19T13:23:38.359Z,165
2017-06-19T13:24:38.356Z,165
2017-06-19T13:25:38.349Z,165
2017-06-19T13:26:38.636Z,165
2017-06-19T13:27:38.308Z,165
2017-06-19T13:28:38.303Z,165
2017-06-19T13:29:38.279Z,165
2017-06-19T13:30:38.315Z,165
2017-06-19T13:31:38.295Z,165
2017-06-19T13:32:38.237Z,165
2017-06-19T13:33:37.924Z,160
2017-06-19T13:34:38.244Z,165
2017-06-19T13:35:38.207Z,170
2017-06-19T13:36:38.181Z,165
2017-06-19T13:37:38.218Z,165
2017-06-19T13:38:37.553Z,160
2017-06-19T13:39:38.136Z,160
2017-06-19T13:40:37.866Z,160
2017-06-19T13:41:38.187Z,160
2017-06-19T13:42:37.538Z,160
2017-06-19T13:43:37.230Z,160
2017-06-19T13:44:38.075Z,160
2017-06-19T13:45:38.064Z,160
2017-06-19T13:46:38.046Z,160
2017-06-19T13:47:37.772Z,160
2017-06-19T13:48:38.013Z,160
2017-06-19T13:49:37.697Z,155
2017-06-19T13:50:37.692Z,155